CheckWX is a tool to help pilots better visualize weather data.  It is not intended as a substitute for an official pre-flight weather briefing.

09:54:45 UTC

CYKA METAR
Kamloops Airport
Kamloops, Canada
Current

55 mins ago

CYKA 190900Z VRB02KT 40SM FEW150 FEW260 17/07 A2975 RMK AC1CI1 SLP073 DENSITY ALT 1900FT
Observed
Aug-19 @ 09:00 UTC
Wind
  • Variable at 2 KTS
Visibility
40 SM
Flight Rules
VFR
Cloud Levels
  • Few at 15,000' AGL
  • Few at 26,000' AGL
Temperature
17°C / 63°F
Dewpoint
C / 45°F
Humidity
52%
Altimeter
29.75" Hg
Pressure
1007.42 hPa
Previous

2 hours ago

CYKA 190800Z 00000KT 40SM FEW180 FEW250 19/08 A2974 RMK AC1CI1 AC TR SLP066 DENSITY ALT 2100FT
Observed
Aug-19 @ 08:00 UTC
Visibility
40 SM
Flight Rules
VFR
Cloud Levels
  • Few at 18,000' AGL
  • Few at 25,000' AGL
Temperature
19°C / 66°F
Dewpoint
C / 46°F
Humidity
49%
Altimeter
29.74" Hg
Pressure
1007.12 hPa
Previous

3 hours ago

CYKA 190700Z 09005KT 40SM FEW180 FEW250 21/07 A2971 RMK AC1CI2 AC TR SLP058 DENSITY ALT 2300FT
Observed
Aug-19 @ 07:00 UTC
Wind
  • 090° at 5 KTS
Visibility
40 SM
Flight Rules
VFR
Cloud Levels
  • Few at 18,000' AGL
  • Few at 25,000' AGL
Temperature
21°C / 70°F
Dewpoint
C / 45°F
Humidity
40%
Altimeter
29.71" Hg
Pressure
1006.12 hPa